Maersk Missouri — WAHV — position and weather

sailwx.info

Track history (hours):
 
Tides and Currents Weather Stations Pressure Air Temp Water Temp Dewpoint Dewpoint Depression Visibility Wind Speed Wind Dir Waves Ship Positions

Maersk Missouri

More information available from US FCC via Universal Licensing System and Coast Guard Vessel Documentation Center.

Last reported at 2014-Aug-20 06:30 UTC. Time now 2014-Aug-20 16:37 UTC.
Position N 29°21' W 094°45'.

Type: Cargo ship. MMSI: 369708000.

Date/timePositionNaut miles runAvg speedWind from/ knotsBaromVisibWave heightAir tempDewpointWater temp
2014-Aug-20 06:30N 29°21' W 094°45'1111.7
2014-Aug-20 05:34N 29°30' W 094°52'1313.0
2014-Aug-20 04:33N 29°41' W 094°59'1 1.2
2014-Aug-20 03:33N 29°41' W 095°00'0 0.0
2014-Aug-20 02:33N 29°41' W 095°00'0 0.0
2014-Aug-20 01:31N 29°41' W 095°00'0 0.0
2014-Aug-20 00:31N 29°41' W 095°00'0 0.0
2014-Aug-19 23:32N 29°41' W 095°00'0 0.0
2014-Aug-19 22:33N 29°41' W 095°00'0 0.0
2014-Aug-19 21:33N 29°41' W 095°00'0 0.0
2014-Aug-19 20:31N 29°41' W 095°00'0 0.0
2014-Aug-19 19:31N 29°41' W 095°00'0 0.0
2014-Aug-19 18:32N 29°41' W 095°00'0 0.0
2014-Aug-19 17:33N 29°41' W 095°00'0 0.0
2014-Aug-19 16:33N 29°41' W 095°00'0 0.0
2014-Aug-19 15:31N 29°41' W 095°00'0 0.0
2014-Aug-19 14:32N 29°41' W 095°00'0 0.0
2014-Aug-19 13:32N 29°41' W 095°00'0 0.0
2014-Aug-19 12:33N 29°41' W 095°00'0 0.3
2014-Aug-19 11:33N 29°41' W 095°00'7 6.9
2014-Aug-19 10:33N 29°35' W 094°56'1413.6
2014-Aug-19 09:33N 29°23' W 094°49'5114.4
2014-Aug-19 06:00N 28°48' W 094°06'11118.6 190 / 141017.010.8 0.529.023.230.1
2014-Aug-19 00:00N 27°42' W 092°24'43017.9 210 / 121017.310.8 0.529.523.030.5
2014-Aug-18 00:00N 24°48' W 085°06'29712.4 060 / 101019.710.8 0.530.024.331.3
2014-Aug-17 00:00N 26°24' W 079°54'1821.4 040 / 101022.810.8 0.525.022.030.6
2014-Aug-16 23:09N 26°42' W 079°58'915.2
2014-Aug-16 22:33N 26°51' W 079°57'1515.0
2014-Aug-16 21:33N 27°06' W 079°57'19212.4
2014-Aug-16 06:00N 30°18' W 080°06'11725.7 230 / 171017.4 5.4 1.527.523.128.3
2014-Aug-16 01:26N 32°05' W 081°02'5 5.2
2014-Aug-16 00:33N 32°07' W 081°07'2 0.9
2014-Aug-15 22:29N 32°08' W 081°09'0 0.0
2014-Aug-15 20:33N 32°08' W 081°09'0 0.0
2014-Aug-15 19:31N 32°08' W 081°09'0 0.0
2014-Aug-15 17:29N 32°08' W 081°09'0 0.0
2014-Aug-15 16:33N 32°08' W 081°09'0 0.0
2014-Aug-15 15:33N 32°08' W 081°09'0 0.0
2014-Aug-15 14:28N 32°08' W 081°09'0 0.0
2014-Aug-15 13:26N 32°08' W 081°09'0 0.0
2014-Aug-15 12:32N 32°08' W 081°09'0 0.0
2014-Aug-15 11:32N 32°08' W 081°09'0 0.0
2014-Aug-15 10:33N 32°08' W 081°09'2 2.0
2014-Aug-15 09:34N 32°06' W 081°07'5 4.0
2014-Aug-15 08:20N 32°05' W 081°02'116 4.4
2014-Aug-14 06:00N 32°48' W 078°54'7913.2 020 / 171016.9 5.4 25.524.127.9
2014-Aug-14 00:00N 33°24' W 077°30'7513.1 270 / 151014.810.8 0.527.024.127.4
2014-Aug-13 18:13N 34°16' W 076°24'812.5
2014-Aug-13 17:33N 34°22' W 076°17'1512.5
2014-Aug-13 16:18N 34°34' W 076°05'11110.8
2014-Aug-13 06:00N 36°18' W 075°18'4612.9 250 / 201010.810.8 25.523.325.2
2014-Aug-13 02:28N 36°53' W 075°54'1011.2
2014-Aug-13 01:33N 36°58' W 076°05'1211.5
2014-Aug-13 00:28N 36°55' W 076°20'2 1.7
2014-Aug-12 23:03N 36°53' W 076°21'0 0.0
2014-Aug-12 21:25N 36°53' W 076°21'0 0.0
2014-Aug-12 20:11N 36°53' W 076°21'0 0.0
2014-Aug-12 18:19N 36°53' W 076°21'0 0.0
2014-Aug-12 11:14N 36°53' W 076°21'0 0.5
2014-Aug-12 10:32N 36°53' W 076°21'6 6.1
2014-Aug-12 09:32N 36°59' W 076°20'1312.8
2014-Aug-12 08:33N 36°58' W 076°04'1111.1
2014-Aug-12 07:33N 36°53' W 075°52'1411.3
2014-Aug-12 06:21N 36°56' W 075°36'3913.4
2014-Aug-12 03:28N 37°29' W 075°10'2512.9
2014-Aug-12 01:30N 37°51' W 074°54'1413.1
2014-Aug-12 00:24N 38°04' W 074°45'4 8.7
2014-Aug-12 00:00N 38°06' W 074°42'6413.5 120 / 131021.210.8 0.524.017.624.8
2014-Aug-11 19:15N 39°06' W 074°14'1013.4
2014-Aug-11 18:29N 39°16' W 074°09'1313.6
2014-Aug-11 17:33N 39°27' W 074°02'1413.5
2014-Aug-11 16:33N 39°40' W 073°56'1313.1
2014-Aug-11 15:33N 39°52' W 073°52'1313.1
2014-Aug-11 14:33N 40°06' W 073°51'1413.7
2014-Aug-11 13:33N 40°19' W 073°49'1212.2
2014-Aug-11 12:34N 40°30' W 073°57'1111.5
2014-Aug-11 11:34N 40°39' W 074°06'2 2.0
2014-Aug-11 10:33N 40°40' W 074°09'0 0.1
2014-Aug-11 09:33N 40°40' W 074°09'0 0.0
2014-Aug-11 08:31N 40°40' W 074°09'0 0.0
2014-Aug-11 07:32N 40°40' W 074°09'0 0.0
2014-Aug-11 06:32N 40°40' W 074°09'0 0.0
2014-Aug-11 05:33N 40°40' W 074°09'0 0.0
2014-Aug-11 04:31N 40°40' W 074°09'0 0.0
2014-Aug-11 03:31N 40°40' W 074°09'0 0.0
2014-Aug-11 02:32N 40°40' W 074°09'0 0.0
2014-Aug-11 01:33N 40°40' W 074°09'0 0.0
2014-Aug-11 00:33N 40°40' W 074°09'0 0.0
2014-Aug-10 23:31N 40°40' W 074°09'0 0.0
2014-Aug-10 22:32N 40°40' W 074°09'0 0.0
2014-Aug-10 21:33N 40°40' W 074°09'4 4.3
2014-Aug-10 20:33N 40°38' W 074°03'10 9.7
2014-Aug-10 19:33N 40°30' W 073°57'1211.6
2014-Aug-10 18:33N 40°27' W 073°42'1514.9
2014-Aug-10 17:33N 40°28' W 073°22'1616.0
2014-Aug-10 16:34N 40°29' W 073°02'1615.9
2014-Aug-10 15:33N 40°30' W 072°41'1615.7
2014-Aug-10 14:33N 40°31' W 072°20'1615.7
2014-Aug-10 13:34N 40°31' W 071°60'1616.1
2014-Aug-10 12:33N 40°32' W 071°39'1616.3
2014-Aug-10 11:34N 40°32' W 071°17'1616.5
2014-Aug-10 10:33N 40°33' W 070°55'1716.8
2014-Aug-10 09:33N 40°33' W 070°33'1717.3
2014-Aug-10 08:33N 40°33' W 070°11'1817.8
2014-Aug-10 07:34N 40°34' W 069°47'1817.5
2014-Aug-10 06:33N 40°34' W 069°24'  
Track history (hours):
 
Tides and Currents Weather Stations Pressure Air Temp Water Temp Dewpoint Dewpoint Depression Visibility Wind Speed Wind Dir Waves Ship Positions

Maersk Missouri

More information available from US FCC via Universal Licensing System and Coast Guard Vessel Documentation Center.

Last reported at 2014-Aug-20 06:30 UTC. Time now 2014-Aug-20 16:37 UTC.
Position N 29°21' W 094°45'.

Type: Cargo ship. MMSI: 369708000.

Date/timePositionNaut miles runAvg speedWind from/ knotsBaromVisibWave heightAir tempDewpointWater temp
2014-Aug-20 06:30N 29°21' W 094°45'1111.7
2014-Aug-20 05:34N 29°30' W 094°52'1313.0
2014-Aug-20 04:33N 29°41' W 094°59'1 1.2
2014-Aug-20 03:33N 29°41' W 095°00'0 0.0
2014-Aug-20 02:33N 29°41' W 095°00'0 0.0
2014-Aug-20 01:31N 29°41' W 095°00'0 0.0
2014-Aug-20 00:31N 29°41' W 095°00'0 0.0
2014-Aug-19 23:32N 29°41' W 095°00'0 0.0
2014-Aug-19 22:33N 29°41' W 095°00'0 0.0
2014-Aug-19 21:33N 29°41' W 095°00'0 0.0
2014-Aug-19 20:31N 29°41' W 095°00'0 0.0
2014-Aug-19 19:31N 29°41' W 095°00'0 0.0
2014-Aug-19 18:32N 29°41' W 095°00'0 0.0
2014-Aug-19 17:33N 29°41' W 095°00'0 0.0
2014-Aug-19 16:33N 29°41' W 095°00'0 0.0
2014-Aug-19 15:31N 29°41' W 095°00'0 0.0
2014-Aug-19 14:32N 29°41' W 095°00'0 0.0
2014-Aug-19 13:32N 29°41' W 095°00'0 0.0
2014-Aug-19 12:33N 29°41' W 095°00'0 0.3
2014-Aug-19 11:33N 29°41' W 095°00'7 6.9
2014-Aug-19 10:33N 29°35' W 094°56'1413.6
2014-Aug-19 09:33N 29°23' W 094°49'5114.4
2014-Aug-19 06:00N 28°48' W 094°06'11118.6 190 / 141017.010.8 0.529.023.230.1
2014-Aug-19 00:00N 27°42' W 092°24'43017.9 210 / 121017.310.8 0.529.523.030.5
2014-Aug-18 00:00N 24°48' W 085°06'29712.4 060 / 101019.710.8 0.530.024.331.3
2014-Aug-17 00:00N 26°24' W 079°54'1821.4 040 / 101022.810.8 0.525.022.030.6
2014-Aug-16 23:09N 26°42' W 079°58'915.2
2014-Aug-16 22:33N 26°51' W 079°57'1515.0
2014-Aug-16 21:33N 27°06' W 079°57'19212.4
2014-Aug-16 06:00N 30°18' W 080°06'11725.7 230 / 171017.4 5.4 1.527.523.128.3
2014-Aug-16 01:26N 32°05' W 081°02'5 5.2
2014-Aug-16 00:33N 32°07' W 081°07'2 0.9
2014-Aug-15 22:29N 32°08' W 081°09'0 0.0
2014-Aug-15 20:33N 32°08' W 081°09'0 0.0
2014-Aug-15 19:31N 32°08' W 081°09'0 0.0
2014-Aug-15 17:29N 32°08' W 081°09'0 0.0
2014-Aug-15 16:33N 32°08' W 081°09'0 0.0
2014-Aug-15 15:33N 32°08' W 081°09'0 0.0
2014-Aug-15 14:28N 32°08' W 081°09'0 0.0
2014-Aug-15 13:26N 32°08' W 081°09'0 0.0
2014-Aug-15 12:32N 32°08' W 081°09'0 0.0
2014-Aug-15 11:32N 32°08' W 081°09'0 0.0
2014-Aug-15 10:33N 32°08' W 081°09'2 2.0
2014-Aug-15 09:34N 32°06' W 081°07'5 4.0
2014-Aug-15 08:20N 32°05' W 081°02'116 4.4
2014-Aug-14 06:00N 32°48' W 078°54'7913.2 020 / 171016.9 5.4 25.524.127.9
2014-Aug-14 00:00N 33°24' W 077°30'7513.1 270 / 151014.810.8 0.527.024.127.4
2014-Aug-13 18:13N 34°16' W 076°24'812.5
2014-Aug-13 17:33N 34°22' W 076°17'1512.5
2014-Aug-13 16:18N 34°34' W 076°05'11110.8
2014-Aug-13 06:00N 36°18' W 075°18'4612.9 250 / 201010.810.8 25.523.325.2
2014-Aug-13 02:28N 36°53' W 075°54'1011.2
2014-Aug-13 01:33N 36°58' W 076°05'1211.5
2014-Aug-13 00:28N 36°55' W 076°20'2 1.7
2014-Aug-12 23:03N 36°53' W 076°21'0 0.0
2014-Aug-12 21:25N 36°53' W 076°21'0 0.0
2014-Aug-12 20:11N 36°53' W 076°21'0 0.0
2014-Aug-12 18:19N 36°53' W 076°21'0 0.0
2014-Aug-12 11:14N 36°53' W 076°21'0 0.5
2014-Aug-12 10:32N 36°53' W 076°21'6 6.1
2014-Aug-12 09:32N 36°59' W 076°20'1312.8
2014-Aug-12 08:33N 36°58' W 076°04'1111.1
2014-Aug-12 07:33N 36°53' W 075°52'1411.3
2014-Aug-12 06:21N 36°56' W 075°36'3913.4
2014-Aug-12 03:28N 37°29' W 075°10'2512.9
2014-Aug-12 01:30N 37°51' W 074°54'1413.1
2014-Aug-12 00:24N 38°04' W 074°45'4 8.7
2014-Aug-12 00:00N 38°06' W 074°42'6413.5 120 / 131021.210.8 0.524.017.624.8
2014-Aug-11 19:15N 39°06' W 074°14'1013.4
2014-Aug-11 18:29N 39°16' W 074°09'1313.6
2014-Aug-11 17:33N 39°27' W 074°02'1413.5
2014-Aug-11 16:33N 39°40' W 073°56'1313.1
2014-Aug-11 15:33N 39°52' W 073°52'1313.1
2014-Aug-11 14:33N 40°06' W 073°51'1413.7
2014-Aug-11 13:33N 40°19' W 073°49'1212.2
2014-Aug-11 12:34N 40°30' W 073°57'1111.5
2014-Aug-11 11:34N 40°39' W 074°06'2 2.0
2014-Aug-11 10:33N 40°40' W 074°09'0 0.1
2014-Aug-11 09:33N 40°40' W 074°09'0 0.0
2014-Aug-11 08:31N 40°40' W 074°09'0 0.0
2014-Aug-11 07:32N 40°40' W 074°09'0 0.0
2014-Aug-11 06:32N 40°40' W 074°09'0 0.0
2014-Aug-11 05:33N 40°40' W 074°09'0 0.0
2014-Aug-11 04:31N 40°40' W 074°09'0 0.0
2014-Aug-11 03:31N 40°40' W 074°09'0 0.0
2014-Aug-11 02:32N 40°40' W 074°09'0 0.0
2014-Aug-11 01:33N 40°40' W 074°09'0 0.0
2014-Aug-11 00:33N 40°40' W 074°09'0 0.0
2014-Aug-10 23:31N 40°40' W 074°09'0 0.0
2014-Aug-10 22:32N 40°40' W 074°09'0 0.0
2014-Aug-10 21:33N 40°40' W 074°09'4 4.3
2014-Aug-10 20:33N 40°38' W 074°03'10 9.7
2014-Aug-10 19:33N 40°30' W 073°57'1211.6
2014-Aug-10 18:33N 40°27' W 073°42'1514.9
2014-Aug-10 17:33N 40°28' W 073°22'1616.0
2014-Aug-10 16:34N 40°29' W 073°02'1615.9
2014-Aug-10 15:33N 40°30' W 072°41'1615.7
2014-Aug-10 14:33N 40°31' W 072°20'1615.7
2014-Aug-10 13:34N 40°31' W 071°60'1616.1
2014-Aug-10 12:33N 40°32' W 071°39'1616.3
2014-Aug-10 11:34N 40°32' W 071°17'1616.5
2014-Aug-10 10:33N 40°33' W 070°55'1716.8
2014-Aug-10 09:33N 40°33' W 070°33'1717.3
2014-Aug-10 08:33N 40°33' W 070°11'1817.8
2014-Aug-10 07:34N 40°34' W 069°47'1817.5
2014-Aug-10 06:33N 40°34' W 069°24'  

Dump ship's entire track history